Time;durP1;ratioP1;P1;durP2;ratioP2;P2;SDS_P1;SDS_P2;PMS_P1;PMS_P2;Temp;Humidity;BMP_temperature;BMP_pressure;BME280_temperature;BME280_humidity;BME280_pressure;Samples;Min_cycle;Max_cycle;Signal;HPM_P1;HPM_P2
2021/11/14 00:01:20;;;;;;;79.57;39.63;;;;;;;3.48;82.98;99191.05;2136784;83;21364;-80
2021/11/14 00:04:21;;;;;;;79.83;39.43;;;;;;;3.43;82.55;99194.20;2137149;83;21036;-80
2021/11/14 00:07:21;;;;;;;82.37;39.83;;;;;;;3.37;82.41;99192.63;2137215;83;21383;-80
2021/11/14 00:10:22;;;;;;;83.67;39.37;;;;;;;3.33;82.21;99193.30;2137024;83;21403;-81
2021/11/14 00:13:22;;;;;;;82.53;39.23;;;;;;;3.32;82.36;99195.00;2137456;83;20981;-80
2021/11/14 00:16:23;;;;;;;77.37;38.73;;;;;;;3.32;82.45;99193.71;2137429;83;20981;-80
2021/11/14 00:19:23;;;;;;;74.10;38.37;;;;;;;3.35;82.50;99199.41;2137467;83;21085;-80
2021/11/14 00:22:24;;;;;;;83.67;40.57;;;;;;;3.39;82.45;99201.32;2137381;83;21293;-80
2021/11/14 00:25:24;;;;;;;83.10;39.90;;;;;;;3.39;82.30;99200.03;2134961;83;21064;-80
2021/11/14 00:28:25;;;;;;;77.10;38.97;;;;;;;3.39;82.25;99201.32;2129368;84;20987;-80
2021/11/14 00:31:25;;;;;;;89.73;41.33;;;;;;;3.41;82.43;99199.70;2129253;84;20988;-79
2021/11/14 00:37:29;;;;;;;79.87;39.80;;;;;;;3.42;83.04;99204.05;2102332;84;21061;-80
2021/11/14 00:40:30;;;;;;;98.07;41.07;;;;;;;3.43;82.95;99203.23;2129237;84;21000;-79
2021/11/14 00:43:31;;;;;;;113.63;37.27;;;;;;;3.42;83.06;99201.46;2128660;84;20953;-80
2021/11/14 00:46:31;;;;;;;135.27;41.43;;;;;;;3.40;82.99;99200.10;2128190;83;20992;-80
2021/11/14 00:49:31;;;;;;;151.57;42.13;;;;;;;3.39;83.13;99202.20;2129160;84;20964;-80
2021/11/14 00:52:32;;;;;;;110.50;41.83;;;;;;;3.39;83.18;99209.06;2129049;83;21399;-80
2021/11/14 00:55:34;;;;;;;114.50;40.20;;;;;;;3.41;83.30;99209.61;2129322;83;21391;-80
2021/11/14 00:58:35;;;;;;;111.07;43.83;;;;;;;3.47;83.33;99214.20;2129278;83;21072;-80
2021/11/14 01:01:35;;;;;;;104.33;42.70;;;;;;;3.50;83.32;99212.64;2129308;83;21313;-80
2021/11/14 01:04:36;;;;;;;117.10;41.80;;;;;;;3.51;83.25;99207.95;2129297;84;20965;-79
2021/11/14 01:07:36;;;;;;;116.30;38.70;;;;;;;3.52;83.27;99214.00;2129592;84;20945;-79
2021/11/14 01:10:37;;;;;;;90.60;36.80;;;;;;;3.50;83.20;99213.94;2129639;83;21426;-82
2021/11/14 01:13:37;;;;;;;116.80;37.60;;;;;;;3.48;83.15;99205.64;2129392;83;21360;-80
2021/11/14 01:16:38;;;;;;;150.73;40.27;;;;;;;3.48;83.14;99209.52;2129356;83;21312;-80
2021/11/14 01:19:38;;;;;;;118.67;41.57;;;;;;;3.45;83.08;99208.05;2129727;84;20913;-80
2021/11/14 01:22:40;;;;;;;104.73;41.77;;;;;;;3.46;83.33;99210.70;2129151;84;21040;-80
2021/11/14 01:25:40;;;;;;;108.00;39.90;;;;;;;3.52;83.43;99210.13;2128484;83;21120;-80
2021/11/14 01:28:41;;;;;;;116.77;39.97;;;;;;;3.55;83.27;99218.02;2128899;83;21380;-81
2021/11/14 01:31:41;;;;;;;126.47;37.57;;;;;;;3.53;83.23;99217.06;2130048;84;21431;-81
2021/11/14 01:34:41;;;;;;;97.73;34.90;;;;;;;3.51;83.15;99218.69;2129654;84;20956;-81
2021/11/14 01:37:42;;;;;;;112.43;36.73;;;;;;;3.47;82.94;99215.49;2129652;83;20937;-80
2021/11/14 01:40:43;;;;;;;92.30;35.17;;;;;;;3.47;83.13;99218.95;2129692;84;21032;-81
2021/11/14 01:43:43;;;;;;;83.37;36.87;;;;;;;3.45;83.07;99212.81;2129781;84;20929;-80
2021/11/14 01:46:44;;;;;;;122.07;34.87;;;;;;;3.49;83.07;99214.75;2129154;83;21324;-80
2021/11/14 01:49:45;;;;;;;126.67;35.67;;;;;;;3.47;82.88;99215.49;2129328;84;21040;-81
2021/11/14 01:52:46;;;;;;;118.70;35.00;;;;;;;3.42;82.99;99212.67;2129598;83;21562;-80
2021/11/14 01:55:46;;;;;;;132.93;35.70;;;;;;;3.40;82.99;99215.99;2128950;84;21410;-80
2021/11/14 01:58:47;;;;;;;91.93;33.50;;;;;;;3.36;83.13;99212.39;2129158;83;20933;-80
2021/11/14 02:01:47;;;;;;;83.10;33.13;;;;;;;3.34;83.00;99216.59;2129480;84;20962;-79
2021/11/14 02:04:48;;;;;;;131.83;33.57;;;;;;;3.29;82.75;99218.48;2128634;83;20982;-79
2021/11/14 02:07:51;;;;;;;114.57;32.83;;;;;;;3.23;82.79;99223.36;2128709;84;20937;-80
2021/11/14 02:10:52;;;;;;;120.20;37.47;;;;;;;3.18;82.84;99220.16;2128744;84;21052;-80
2021/11/14 02:13:52;;;;;;;109.33;34.57;;;;;;;3.12;83.11;99226.33;2129184;84;20984;-80
2021/11/14 02:16:52;;;;;;;113.90;33.87;;;;;;;3.08;83.12;99227.40;2128900;84;21000;-80
2021/11/14 02:19:53;;;;;;;102.93;33.23;;;;;;;3.08;83.30;99224.81;2128950;83;20953;-80
2021/11/14 02:22:54;;;;;;;122.33;33.93;;;;;;;3.08;83.41;99232.16;2129435;84;20961;-80
2021/11/14 02:25:54;;;;;;;91.30;35.13;;;;;;;3.10;83.34;99231.81;2131230;83;21056;-79
2021/11/14 02:28:55;;;;;;;107.37;34.37;;;;;;;3.06;83.20;99235.06;2137134;83;21000;-80
2021/11/14 02:31:56;;;;;;;115.23;34.27;;;;;;;3.06;83.36;99236.35;2137241;83;20976;-80
2021/11/14 02:34:56;;;;;;;89.07;34.70;;;;;;;3.06;83.38;99242.80;2137087;83;20960;-80
2021/11/14 02:37:56;;;;;;;101.77;35.97;;;;;;;3.06;83.45;99244.50;2137095;83;20980;-80
2021/11/14 02:40:57;;;;;;;109.13;36.07;;;;;;;3.07;83.54;99252.30;2137163;83;20968;-81
2021/11/14 02:43:58;;;;;;;96.13;34.80;;;;;;;3.15;83.66;99250.09;2137054;83;20988;-80
2021/11/14 02:46:58;;;;;;;88.63;35.93;;;;;;;3.17;83.37;99253.22;2136515;83;20992;-80
2021/11/14 02:49:59;;;;;;;91.47;38.13;;;;;;;3.22;83.45;99255.13;2137237;83;21024;-80
2021/11/14 02:52:59;;;;;;;80.03;36.23;;;;;;;3.27;83.53;99256.23;2136761;83;20981;-80
2021/11/14 02:56:00;;;;;;;84.73;35.90;;;;;;;3.32;83.59;99258.62;2136036;83;21405;-80
2021/11/14 02:59:01;;;;;;;98.27;35.57;;;;;;;3.36;83.43;99257.95;2136512;83;21361;-80
2021/11/14 03:02:02;;;;;;;91.40;35.60;;;;;;;3.40;83.38;99258.16;2136495;83;20960;-81
2021/11/14 03:05:02;;;;;;;85.13;36.33;;;;;;;3.40;83.19;99259.86;2136383;83;21391;-80
2021/11/14 03:08:03;;;;;;;85.63;37.10;;;;;;;3.44;83.36;99257.49;2136248;83;20976;-80
2021/11/14 03:11:03;;;;;;;81.97;38.13;;;;;;;3.50;83.24;99256.92;2137216;83;21339;-81
2021/11/14 03:14:04;;;;;;;90.60;37.57;;;;;;;3.53;83.14;99266.51;2136276;83;20987;-81
2021/11/14 03:17:04;;;;;;;78.70;37.07;;;;;;;3.55;83.04;99259.72;2136071;83;21312;-81
2021/11/14 03:20:05;;;;;;;77.83;38.23;;;;;;;3.57;83.02;99265.43;2137266;83;21041;-80
2021/11/14 03:23:05;;;;;;;76.33;38.90;;;;;;;3.58;82.96;99269.78;2136346;83;21425;-80
2021/11/14 03:26:06;;;;;;;82.83;41.17;;;;;;;3.58;82.86;99267.20;2128759;83;21019;-81
2021/11/14 03:29:06;;;;;;;77.70;39.57;;;;;;;3.60;82.93;99272.02;2106829;84;20987;-80
2021/11/14 03:32:07;;;;;;;88.13;36.10;;;;;;;3.64;82.85;99273.05;2107183;84;21019;-80
2021/11/14 03:35:07;;;;;;;81.23;39.27;;;;;;;3.64;82.74;99268.77;2106943;84;20959;-81
2021/11/14 03:38:08;;;;;;;82.77;38.87;;;;;;;3.62;82.66;99269.11;2106527;84;20944;-81
2021/11/14 03:41:08;;;;;;;82.93;40.27;;;;;;;3.59;82.53;99269.37;2106371;84;21019;-81
2021/11/14 03:44:09;;;;;;;79.37;39.20;;;;;;;3.59;82.63;99273.24;2107368;84;20979;-81
2021/11/14 03:47:10;;;;;;;84.37;41.10;;;;;;;3.58;82.57;99274.05;2107432;84;20936;-80
2021/11/14 03:50:10;;;;;;;78.43;38.67;;;;;;;3.57;82.46;99270.59;2107542;84;21444;-81
2021/11/14 03:53:11;;;;;;;78.03;40.43;;;;;;;3.57;82.44;99276.16;2107669;84;20976;-81
2021/11/14 03:56:11;;;;;;;91.20;41.97;;;;;;;3.54;82.37;99274.32;2107047;84;21085;-81
2021/11/14 03:59:12;;;;;;;86.67;42.87;;;;;;;3.51;82.30;99271.19;2107413;84;20971;-81
2021/11/14 04:02:12;;;;;;;85.03;42.13;;;;;;;3.51;82.42;99271.60;2107291;84;20932;-81
2021/11/14 04:05:13;;;;;;;98.77;41.93;;;;;;;3.48;82.56;99279.20;2107617;84;20978;-81
2021/11/14 04:08:13;;;;;;;86.03;42.50;;;;;;;3.50;82.52;99276.28;2107630;85;21393;-81
2021/11/14 04:11:14;;;;;;;86.40;41.37;;;;;;;3.53;82.50;99280.70;2107644;84;21411;-81
2021/11/14 04:14:14;;;;;;;88.13;42.63;;;;;;;3.53;82.43;99286.75;2107718;84;20995;-81
2021/11/14 04:17:15;;;;;;;94.87;43.30;;;;;;;3.52;82.33;99286.27;2107512;84;20968;-80
2021/11/14 04:20:15;;;;;;;84.10;40.70;;;;;;;3.48;82.27;99286.95;2107316;84;20951;-82
2021/11/14 04:23:17;;;;;;;102.40;42.80;;;;;;;3.47;82.33;99289.05;2107182;84;20983;-81
2021/11/14 04:26:17;;;;;;;100.57;43.53;;;;;;;3.47;82.36;99287.75;2114314;83;21447;-81
2021/11/14 04:29:22;;;;;;;91.43;43.13;;;;;;;3.47;82.27;99296.79;2137475;83;20937;-81
2021/11/14 04:32:22;;;;;;;99.67;42.98;;;;;;;3.47;82.32;99297.67;2137499;83;20983;-81
2021/11/14 04:35:23;;;;;;;93.43;44.43;;;;;;;3.48;82.26;99300.73;2137201;83;21384;-81
2021/11/14 04:38:24;;;;;;;84.37;42.43;;;;;;;3.48;82.22;99305.02;2137512;83;21364;-82
2021/11/14 04:41:24;;;;;;;84.57;43.23;;;;;;;3.42;82.09;99297.83;2137522;83;20940;-81
2021/11/14 04:44:25;;;;;;;85.83;40.63;;;;;;;3.41;82.04;99300.34;2137155;83;21417;-81
2021/11/14 04:47:25;;;;;;;90.97;43.60;;;;;;;3.37;82.11;99303.59;2136562;83;20968;-81
2021/11/14 04:50:26;;;;;;;90.27;43.13;;;;;;;3.37;82.13;99308.34;2136366;83;20983;-81
2021/11/14 04:53:26;;;;;;;85.00;42.53;;;;;;;3.37;82.10;99311.33;2136697;83;21431;-81
2021/11/14 04:56:28;;;;;;;82.17;41.30;;;;;;;3.33;82.04;99309.41;2137212;83;21074;-81
2021/11/14 04:59:29;;;;;;;91.83;44.33;;;;;;;3.29;82.13;99310.97;2136630;83;21029;-82
2021/11/14 05:02:29;;;;;;;83.97;45.00;;;;;;;3.29;82.18;99318.70;2136433;83;21368;-81
2021/11/14 05:05:30;;;;;;;90.47;44.90;;;;;;;3.29;82.23;99312.25;2136813;83;21020;-81
2021/11/14 05:08:30;;;;;;;90.47;44.87;;;;;;;3.27;82.29;99316.45;2137126;83;21027;-81
2021/11/14 05:11:31;;;;;;;96.03;48.43;;;;;;;3.27;82.35;99318.16;2137101;83;21012;-81
2021/11/14 05:14:31;;;;;;;86.53;44.27;;;;;;;3.26;82.52;99321.55;2137127;83;20960;-81
2021/11/14 05:17:32;;;;;;;91.27;45.10;;;;;;;3.30;82.61;99326.04;2136635;83;21016;-81
2021/11/14 05:20:32;;;;;;;95.87;46.73;;;;;;;3.32;82.61;99329.58;2136929;83;21419;-82
2021/11/14 05:23:33;;;;;;;96.07;48.37;;;;;;;3.34;82.73;99327.95;2136913;83;20996;-81
2021/11/14 05:26:33;;;;;;;100.27;47.70;;;;;;;3.36;82.71;99331.09;2137073;83;21032;-82
2021/11/14 05:29:34;;;;;;;100.10;47.23;;;;;;;3.39;82.70;99332.93;2137378;83;20976;-81
2021/11/14 05:32:34;;;;;;;102.07;47.97;;;;;;;3.39;82.75;99332.93;2136823;83;21360;-82
2021/11/14 05:35:35;;;;;;;105.40;47.53;;;;;;;3.42;82.78;99336.95;2137030;83;20969;-82
2021/11/14 05:38:36;;;;;;;96.50;46.23;;;;;;;3.47;82.81;99344.53;2137265;83;20996;-82
2021/11/14 05:41:36;;;;;;;99.10;47.70;;;;;;;3.48;82.69;99344.61;2137579;83;21366;-82
2021/11/14 05:44:37;;;;;;;108.80;49.67;;;;;;;3.47;82.63;99352.28;2137003;83;21359;-82
2021/11/14 05:47:37;;;;;;;102.87;48.27;;;;;;;3.40;82.47;99345.02;2137281;83;21040;-81
2021/11/14 05:50:38;;;;;;;97.53;46.40;;;;;;;3.34;82.56;99353.35;2137841;83;21012;-82
2021/11/14 05:53:38;;;;;;;93.80;45.60;;;;;;;3.35;82.64;99358.99;2137559;83;21337;-81
2021/11/14 05:56:39;;;;;;;99.43;46.70;;;;;;;3.34;82.65;99361.50;2137599;83;21003;-81
2021/11/14 05:59:54;;;;;;;105.67;48.47;;;;;;;3.31;82.54;99367.80;2137422;83;20964;-81
2021/11/14 06:02:52;;;;;;;96.80;49.33;;;;;;;3.27;82.73;99374.52;2135657;83;21039;-82
2021/11/14 06:05:50;;;;;;;101.20;47.83;;;;;;;3.20;82.62;99373.73;2136563;83;20964;-81
2021/11/14 06:08:50;;;;;;;101.87;48.07;;;;;;;3.16;82.71;99379.14;2136855;83;20995;-81
2021/11/14 06:11:51;;;;;;;127.07;46.57;;;;;;;3.15;82.82;99386.80;2136726;83;21047;-81
2021/11/14 06:14:52;;;;;;;102.57;48.67;;;;;;;3.12;82.92;99391.81;2136954;83;21011;-82
2021/11/14 06:17:52;;;;;;;106.40;48.13;;;;;;;3.16;83.06;99391.16;2137465;83;21277;-83
2021/11/14 06:20:53;;;;;;;114.23;48.57;;;;;;;3.19;83.09;99399.94;2137546;83;20961;-82
2021/11/14 06:23:53;;;;;;;146.00;47.20;;;;;;;3.23;83.12;99406.13;2137703;83;20964;-82
2021/11/14 06:26:54;;;;;;;117.77;46.63;;;;;;;3.26;82.84;99417.01;2137563;83;21016;-84
2021/11/14 06:29:54;;;;;;;181.57;46.93;;;;;;;3.24;82.89;99415.64;2137156;83;21039;-81
2021/11/14 06:32:55;;;;;;;125.33;44.17;;;;;;;3.30;82.98;99415.94;2136921;83;21028;-80
2021/11/14 06:35:55;;;;;;;129.17;44.20;;;;;;;3.34;82.76;99421.73;2137261;83;21019;-82
2021/11/14 06:38:56;;;;;;;121.60;46.13;;;;;;;3.35;82.67;99435.52;2136723;83;21012;-82
2021/11/14 06:41:56;;;;;;;135.23;42.50;;;;;;;3.38;82.66;99435.27;2137164;83;20968;-81
2021/11/14 06:44:57;;;;;;;124.63;41.73;;;;;;;3.47;82.69;99443.91;2136954;83;20968;-82
2021/11/14 06:47:57;;;;;;;91.00;40.53;;;;;;;3.51;82.51;99446.70;2137718;83;21023;-80
2021/11/14 06:50:57;;;;;;;105.40;41.43;;;;;;;3.53;82.20;99453.23;2137167;83;21008;-81
2021/11/14 06:53:58;;;;;;;156.73;41.63;;;;;;;3.59;82.27;99453.94;2137338;83;20968;-82
2021/11/14 06:56:58;;;;;;;99.90;38.70;;;;;;;3.60;81.99;99467.33;2137101;83;21463;-81
2021/11/14 06:59:59;;;;;;;127.80;38.93;;;;;;;3.64;82.06;99466.27;2137250;83;20940;-80
2021/11/14 07:02:59;;;;;;;138.23;41.27;;;;;;;3.70;81.98;99471.72;2137355;83;21007;-81
2021/11/14 07:06:00;;;;;;;116.70;40.33;;;;;;;3.73;81.98;99470.98;2137401;83;21008;-80
2021/11/14 07:09:00;;;;;;;151.53;41.67;;;;;;;3.75;81.65;99471.55;2137045;83;20964;-82
2021/11/14 07:12:01;;;;;;;115.47;40.67;;;;;;;3.77;81.68;99475.48;2136682;83;21039;-81
2021/11/14 07:15:01;;;;;;;96.23;39.73;;;;;;;3.82;81.79;99480.06;2136945;83;20987;-82
2021/11/14 07:18:02;;;;;;;108.60;40.60;;;;;;;3.90;81.74;99476.97;2137180;83;20960;-80
2021/11/14 07:21:02;;;;;;;97.87;41.17;;;;;;;3.94;81.38;99482.35;2136684;83;20968;-80
2021/11/14 07:24:03;;;;;;;107.60;41.03;;;;;;;3.98;81.36;99484.67;2136771;83;20969;-81
2021/11/14 07:27:03;;;;;;;89.30;41.20;;;;;;;4.06;81.30;99488.51;2136743;83;21067;-81
2021/11/14 07:30:05;;;;;;;84.93;41.07;;;;;;;4.09;81.21;99485.66;2137051;83;21357;-83
2021/11/14 07:33:05;;;;;;;90.83;41.53;;;;;;;4.15;81.25;99482.48;2137123;83;21043;-81
2021/11/14 07:36:06;;;;;;;114.93;40.67;;;;;;;4.18;80.99;99480.45;2137099;83;20965;-80
2021/11/14 07:39:06;;;;;;;105.17;40.70;;;;;;;4.22;80.87;99481.96;2136923;83;21408;-82
2021/11/14 07:42:07;;;;;;;77.90;40.73;;;;;;;4.25;80.80;99479.52;2136849;83;21051;-82
2021/11/14 07:45:13;;;;;;;83.40;40.37;;;;;;;4.29;80.73;99478.84;2136724;83;21078;-81
2021/11/14 07:48:14;;;;;;;82.90;39.83;;;;;;;4.41;80.69;99482.44;2136614;83;20980;-81
2021/11/14 07:51:14;;;;;;;102.93;36.57;;;;;;;4.47;80.34;99486.19;2136151;83;21011;-82
2021/11/14 07:54:15;;;;;;;83.90;39.97;;;;;;;4.55;80.00;99485.25;2137073;83;20996;-82
2021/11/14 07:57:15;;;;;;;81.97;36.63;;;;;;;4.59;80.06;99492.73;2136968;83;21052;-81
2021/11/14 08:00:16;;;;;;;78.73;38.70;;;;;;;4.65;79.76;99490.43;2136433;83;20948;-81
2021/11/14 08:03:16;;;;;;;79.57;35.20;;;;;;;4.70;79.64;99496.70;2137250;83;21362;-80
2021/11/14 08:06:17;;;;;;;63.67;35.83;;;;;;;4.65;79.02;99491.72;2137141;83;20961;-80
2021/11/14 08:09:17;;;;;;;78.00;35.37;;;;;;;4.57;79.06;99496.95;2137582;83;20984;-81
2021/11/14 08:12:18;;;;;;;73.27;38.53;;;;;;;4.60;78.99;99504.85;2136752;83;21000;-82
2021/11/14 08:15:19;;;;;;;79.40;37.87;;;;;;;4.64;79.14;99509.34;2136177;83;20989;-81
2021/11/14 08:18:19;;;;;;;62.57;36.73;;;;;;;4.73;79.21;99514.94;2136037;83;20957;-80
2021/11/14 08:21:20;;;;;;;66.37;36.07;;;;;;;4.88;79.28;99510.45;2136104;83;20981;-81
2021/11/14 08:24:21;;;;;;;82.27;36.50;;;;;;;4.99;78.91;99508.34;2136280;83;21336;-81
2021/11/14 08:27:21;;;;;;;66.57;37.80;;;;;;;5.04;78.82;99510.31;2127502;83;21522;-80
2021/11/14 08:30:21;;;;;;;67.57;37.83;;;;;;;5.11;78.87;99517.53;2106404;84;21018;-80
2021/11/14 08:33:23;;;;;;;66.30;38.53;;;;;;;5.26;78.58;99521.23;2107508;84;21035;-82
2021/11/14 08:36:26;;;;;;;56.53;34.93;;;;;;;5.34;78.54;99524.14;2107911;84;20959;-81
2021/11/14 08:39:26;;;;;;;69.23;37.50;;;;;;;5.44;78.30;99527.61;2107411;84;21016;-81
2021/11/14 08:42:26;;;;;;;59.97;36.87;;;;;;;5.51;78.17;99530.93;2107849;84;21007;-81
2021/11/14 08:45:27;;;;;;;88.50;35.30;;;;;;;5.59;77.87;99537.73;2107240;84;21006;-81
2021/11/14 08:48:29;;;;;;;86.47;36.83;;;;;;;5.64;77.44;99535.81;2079785;85;20948;-80
2021/11/14 08:51:29;;;;;;;93.90;34.20;;;;;;;5.61;77.01;99527.91;2107553;84;20959;-80
2021/11/14 08:54:30;;;;;;;54.33;35.47;;;;;;;5.62;76.90;99541.74;2107657;84;20992;-81
2021/11/14 08:57:31;;;;;;;57.30;37.50;;;;;;;5.56;76.96;99542.78;2107335;84;21015;-81
2021/11/14 09:00:31;;;;;;;54.57;33.67;;;;;;;5.55;77.11;99547.08;2107533;84;21299;-80
2021/11/14 09:03:32;;;;;;;50.63;33.80;;;;;;;5.62;77.16;99549.52;2107535;84;21370;-82
2021/11/14 09:06:32;;;;;;;51.70;32.43;;;;;;;5.70;77.15;99552.91;2107562;84;20996;-81
2021/11/14 09:09:33;;;;;;;58.50;33.63;;;;;;;5.79;76.91;99556.70;2107402;84;20951;-83
2021/11/14 09:12:33;;;;;;;54.30;33.87;;;;;;;5.89;76.73;99556.27;2107548;84;20983;-81
2021/11/14 09:15:33;;;;;;;67.97;34.20;;;;;;;5.97;76.46;99558.80;2107595;84;21015;-80
2021/11/14 09:18:34;;;;;;;54.30;34.83;;;;;;;6.02;76.12;99554.69;2106947;84;20947;-81
2021/11/14 09:21:35;;;;;;;50.87;33.17;;;;;;;6.05;76.46;99558.28;2106784;84;20948;-81
2021/11/14 09:24:35;;;;;;;49.90;31.73;;;;;;;6.17;76.35;99560.53;2107688;84;21316;-81
2021/11/14 09:27:36;;;;;;;48.23;31.70;;;;;;;6.32;76.05;99555.06;2107070;83;21406;-81
2021/11/14 09:30:36;;;;;;;49.27;32.47;;;;;;;6.38;75.66;99561.80;2107568;84;21019;-81
2021/11/14 09:33:37;;;;;;;55.50;34.97;;;;;;;6.47;75.73;99567.75;2107532;84;21003;-81
2021/11/14 09:36:38;;;;;;;51.20;33.33;;;;;;;6.49;75.32;99567.41;2107476;84;21004;-81
2021/11/14 09:39:38;;;;;;;54.03;33.77;;;;;;;6.53;75.24;99564.99;2107820;84;20976;-80
2021/11/14 09:42:39;;;;;;;45.13;31.03;;;;;;;6.56;74.94;99566.41;2107578;84;20979;-79
2021/11/14 09:45:39;;;;;;;45.80;33.20;;;;;;;6.62;74.67;99565.77;2106942;84;21015;-80
2021/11/14 09:48:40;;;;;;;49.60;33.60;;;;;;;6.59;74.58;99568.23;2106981;84;21326;-80
2021/11/14 09:51:40;;;;;;;54.20;31.53;;;;;;;6.65;74.60;99558.98;2108140;84;21355;-83
2021/11/14 09:54:41;;;;;;;47.97;31.23;;;;;;;6.74;74.51;99568.83;2107479;84;20971;-81
2021/11/14 09:57:42;;;;;;;48.40;32.43;;;;;;;6.81;73.94;99566.94;2107486;84;21343;-81
2021/11/14 10:00:42;;;;;;;44.17;31.43;;;;;;;6.82;74.01;99562.22;2107757;84;20959;-81
2021/11/14 10:03:45;;;;;;;43.80;31.20;;;;;;;6.92;74.16;99563.04;2107572;84;20984;-81
2021/11/14 10:06:45;;;;;;;52.40;34.33;;;;;;;7.01;73.83;99562.12;2107160;84;21023;-80
2021/11/14 10:09:46;;;;;;;48.03;30.23;;;;;;;7.12;73.68;99560.33;2106974;84;20975;-81
2021/11/14 10:12:46;;;;;;;46.47;31.83;;;;;;;7.24;73.58;99563.38;2107492;84;20935;-81
2021/11/14 10:15:47;;;;;;;45.67;31.77;;;;;;;7.34;73.30;99562.46;2107677;84;21324;-81
2021/11/14 10:18:47;;;;;;;47.10;32.20;;;;;;;7.35;73.18;99569.84;2107576;84;21296;-83
2021/11/14 10:21:48;;;;;;;45.60;32.33;;;;;;;7.31;73.06;99574.45;2107507;84;20967;-81
2021/11/14 10:24:48;;;;;;;50.70;34.10;;;;;;;7.33;73.10;99571.08;2107453;84;20998;-81
2021/11/14 10:27:49;;;;;;;47.07;31.37;;;;;;;7.35;72.93;99576.33;2107478;84;21039;-80
2021/11/14 10:30:49;;;;;;;47.53;31.23;;;;;;;7.35;72.70;99578.52;2107550;84;20967;-82
2021/11/14 10:33:50;;;;;;;41.53;30.17;;;;;;;7.32;72.70;99584.90;2107573;84;20983;-81
2021/11/14 10:36:50;;;;;;;45.27;31.00;;;;;;;7.31;72.57;99578.35;2107931;84;21026;-81
2021/11/14 10:39:51;;;;;;;44.80;31.57;;;;;;;7.35;72.86;99585.42;2107490;84;21391;-81
2021/11/14 10:42:51;;;;;;;44.00;30.63;;;;;;;7.32;72.48;99584.02;2107402;84;20979;-80
2021/11/14 10:45:52;;;;;;;45.97;30.90;;;;;;;7.32;72.50;99581.41;2107017;84;21002;-81
2021/11/14 10:48:52;;;;;;;47.40;33.30;;;;;;;7.32;72.60;99580.12;2107663;84;20954;-81
2021/11/14 10:51:53;;;;;;;49.83;33.80;;;;;;;7.26;72.53;99580.78;2107378;84;20983;-81
2021/11/14 10:54:53;;;;;;;55.70;37.53;;;;;;;7.22;72.45;99581.91;2107301;84;21418;-80
2021/11/14 10:57:54;;;;;;;46.97;33.33;;;;;;;7.20;72.47;99579.26;2107208;84;20989;-80
2021/11/14 11:00:56;;;;;;;48.23;32.80;;;;;;;7.26;72.83;99590.28;2107443;84;21027;-80
2021/11/14 11:03:56;;;;;;;46.70;32.27;;;;;;;7.25;72.82;99589.81;2107597;85;20991;-80
2021/11/14 11:06:59;;;;;;;44.77;31.67;;;;;;;7.26;72.80;99590.28;2107600;85;21011;-80
2021/11/14 11:09:59;;;;;;;44.63;31.20;;;;;;;7.19;72.52;99596.08;2108071;85;21079;-81
2021/11/14 11:13:00;;;;;;;43.33;30.63;;;;;;;7.19;73.01;99597.37;2107356;85;21039;-81
2021/11/14 11:16:01;;;;;;;47.93;33.53;;;;;;;7.25;73.00;99593.70;2107713;84;21370;-80
2021/11/14 11:19:01;;;;;;;49.77;33.87;;;;;;;7.32;72.77;99592.69;2107350;84;21395;-80
2021/11/14 11:22:02;;;;;;;50.47;35.00;;;;;;;7.38;72.71;99595.92;2108024;84;21042;-80
2021/11/14 11:25:03;;;;;;;53.20;34.67;;;;;;;7.37;72.69;99591.97;2107470;85;20987;-80
2021/11/14 11:28:04;;;;;;;47.67;33.83;;;;;;;7.41;72.76;99591.25;2115608;83;21482;-80
2021/11/14 11:31:04;;;;;;;44.30;30.90;;;;;;;7.45;72.66;99592.72;2137095;83;21032;-80
2021/11/14 11:34:05;;;;;;;43.80;31.93;;;;;;;7.51;72.47;99592.05;2137197;83;21375;-81
2021/11/14 11:37:05;;;;;;;48.07;31.83;;;;;;;7.59;72.44;99589.31;2137291;83;21398;-80
2021/11/14 11:40:06;;;;;;;49.83;32.57;;;;;;;7.61;71.65;99585.94;2137276;83;21035;-81
2021/11/14 11:43:06;;;;;;;48.57;32.13;;;;;;;7.57;71.88;99586.66;2137141;83;20977;-80
2021/11/14 11:46:07;;;;;;;49.50;33.50;;;;;;;7.49;71.38;99589.41;2137192;83;20969;-81
2021/11/14 11:49:09;;;;;;;53.00;33.53;;;;;;;7.35;71.97;99589.32;2137239;83;20985;-81
2021/11/14 11:52:09;;;;;;;52.40;34.60;;;;;;;7.24;72.10;99585.45;2137137;83;21306;-81
2021/11/14 11:55:10;;;;;;;52.90;34.43;;;;;;;7.16;72.31;99585.16;2137210;83;21015;-81
2021/11/14 11:58:10;;;;;;;49.93;33.57;;;;;;;7.16;72.52;99588.17;2137124;83;21012;-81
2021/11/14 12:01:11;;;;;;;51.27;34.10;;;;;;;7.08;72.70;99585.30;2136956;83;21017;-80
2021/11/14 12:04:11;;;;;;;53.83;32.07;;;;;;;7.01;72.64;99591.97;2136732;83;21008;-81
2021/11/14 12:07:12;;;;;;;53.07;35.10;;;;;;;6.90;72.87;99590.64;2136906;83;21359;-81
2021/11/14 12:10:13;;;;;;;51.20;34.73;;;;;;;6.85;73.20;99593.48;2136593;83;21375;-80
2021/11/14 12:13:15;;;;;;;57.00;37.23;;;;;;;6.87;73.34;99602.63;2137192;83;21559;-82
2021/11/14 12:16:15;;;;;;;49.67;34.23;;;;;;;6.82;73.25;99609.34;2137091;83;21375;-80
2021/11/14 12:19:16;;;;;;;55.87;34.70;;;;;;;6.79;73.41;99611.41;2137307;83;20969;-82
2021/11/14 12:22:18;;;;;;;49.47;33.63;;;;;;;6.81;73.42;99608.45;2137232;83;20941;-80
2021/11/14 12:25:19;;;;;;;50.10;33.83;;;;;;;6.84;73.33;99617.66;2136773;83;21057;-81
2021/11/14 12:28:19;;;;;;;48.90;31.70;;;;;;;6.89;73.41;99621.73;2134556;83;21064;-82
2021/11/14 12:31:25;;;;;;;45.67;31.70;;;;;;;6.94;73.30;99615.92;2129347;83;21020;-80
2021/11/14 12:34:22;;;;;;;45.40;30.23;;;;;;;6.97;73.28;99617.34;2127969;84;20980;-80
2021/11/14 12:37:23;;;;;;;49.37;32.03;;;;;;;6.99;73.33;99616.98;2129008;83;20981;-79
2021/11/14 12:40:23;;;;;;;45.70;31.33;;;;;;;7.06;73.29;99621.11;2128431;83;21008;-81
2021/11/14 12:43:24;;;;;;;46.07;31.07;;;;;;;7.09;73.01;99622.52;2128612;83;21011;-80
2021/11/14 12:46:24;;;;;;;45.47;30.87;;;;;;;7.05;72.97;99625.83;2129159;84;20972;-81
2021/11/14 12:49:25;;;;;;;46.47;31.67;;;;;;;7.06;73.02;99621.11;2129235;83;20957;-80
2021/11/14 12:52:25;;;;;;;46.87;32.03;;;;;;;7.07;72.88;99626.36;2129120;84;20980;-83
2021/11/14 12:55:26;;;;;;;47.07;32.47;;;;;;;6.98;73.04;99625.59;2129243;83;21392;-80
2021/11/14 12:58:27;;;;;;;48.10;33.93;;;;;;;6.94;73.12;99631.50;2129318;84;21056;-80
2021/11/14 13:01:27;;;;;;;53.50;34.40;;;;;;;6.95;73.45;99634.56;2128573;84;21041;-81
2021/11/14 13:04:28;;;;;;;52.90;35.37;;;;;;;6.97;73.57;99633.33;2128874;83;20939;-81
2021/11/14 13:07:30;;;;;;;56.27;35.03;;;;;;;6.96;73.48;99638.05;2128754;83;21004;-81
2021/11/14 13:10:31;;;;;;;56.50;36.83;;;;;;;6.85;73.46;99641.48;2129074;84;21449;-80
2021/11/14 13:13:32;;;;;;;51.30;35.00;;;;;;;6.81;73.67;99639.59;2128785;83;21028;-81
2021/11/14 13:16:32;;;;;;;53.10;35.40;;;;;;;6.81;73.88;99639.59;2129097;83;20961;-81
2021/11/14 13:19:33;;;;;;;50.43;33.57;;;;;;;6.82;73.96;99646.55;2129177;83;20988;-80
2021/11/14 13:22:33;;;;;;;53.87;34.50;;;;;;;6.82;73.88;99646.97;2129431;83;20976;-81
2021/11/14 13:25:34;;;;;;;56.47;34.73;;;;;;;6.84;74.00;99647.91;2129220;84;20985;-81
2021/11/14 13:28:34;;;;;;;50.30;33.43;;;;;;;6.85;74.09;99650.98;2131317;83;21000;-81
2021/11/14 13:31:35;;;;;;;51.97;33.43;;;;;;;6.83;74.05;99656.53;2136920;83;21035;-81
2021/11/14 13:34:35;;;;;;;50.97;34.53;;;;;;;6.78;74.20;99653.75;2136507;83;20976;-81
2021/11/14 13:37:40;;;;;;;50.77;33.10;;;;;;;6.75;74.21;99653.62;2136262;83;20968;-81
2021/11/14 13:40:38;;;;;;;48.83;33.87;;;;;;;6.66;74.39;99660.63;2136331;83;21003;-81
2021/11/14 13:43:39;;;;;;;49.43;34.27;;;;;;;6.65;74.54;99660.57;2137071;83;20960;-82
2021/11/14 13:46:39;;;;;;;51.13;34.27;;;;;;;6.62;74.68;99658.73;2137197;83;20988;-81
2021/11/14 13:49:40;;;;;;;45.53;31.50;;;;;;;6.62;74.78;99665.23;2137094;83;20988;-80
2021/11/14 13:52:40;;;;;;;45.73;31.60;;;;;;;6.63;74.81;99665.70;2137006;83;21373;-82
2021/11/14 13:55:41;;;;;;;50.37;33.63;;;;;;;6.62;74.77;99673.42;2137062;83;21008;-81
2021/11/14 13:58:41;;;;;;;49.43;31.83;;;;;;;6.60;74.85;99674.66;2137175;83;21380;-82
2021/11/14 14:01:42;;;;;;;46.10;31.97;;;;;;;6.59;74.86;99682.38;2137177;83;21308;-81